createdAt,value
2023-07-27T00:00:37.088Z,-67
2023-07-27T00:03:05.625Z,-67
2023-07-27T00:05:34.651Z,-67
2023-07-27T00:08:02.988Z,-67
2023-07-27T00:10:31.444Z,-66
2023-07-27T00:12:59.706Z,-67
2023-07-27T00:15:28.032Z,-66
2023-07-27T00:17:56.551Z,-67
2023-07-27T00:20:24.882Z,-67
2023-07-27T00:22:53.204Z,-67
2023-07-27T00:25:21.571Z,-67
2023-07-27T00:27:49.823Z,-66
2023-07-27T00:30:18.276Z,-66
2023-07-27T00:32:46.748Z,-66
2023-07-27T00:35:15.129Z,-66
2023-07-27T00:37:44.016Z,-67
2023-07-27T00:40:12.457Z,-67
2023-07-27T00:42:40.742Z,-67
2023-07-27T00:45:09.498Z,-66
2023-07-27T00:47:37.960Z,-67
2023-07-27T00:50:06.624Z,-66
2023-07-27T00:52:34.967Z,-66
2023-07-27T00:55:03.536Z,-66
2023-07-27T00:57:31.877Z,-67
2023-07-27T01:00:00.212Z,-67
2023-07-27T01:02:28.547Z,-66
2023-07-27T01:04:56.758Z,-67
2023-07-27T01:07:24.999Z,-66
2023-07-27T01:09:53.283Z,-66
2023-07-27T01:12:36.856Z,-67
2023-07-27T01:15:12.700Z,-66
2023-07-27T01:17:40.921Z,-66
2023-07-27T01:20:47.773Z,-66
2023-07-27T01:24:00.100Z,-66
2023-07-27T01:26:48.414Z,-67
2023-07-27T01:29:55.631Z,-67
2023-07-27T01:32:24.789Z,-66
2023-07-27T01:34:58.710Z,-67
2023-07-27T01:37:31.131Z,-67
2023-07-27T01:40:03.175Z,-66
2023-07-27T01:42:32.160Z,-66
2023-07-27T01:45:00.833Z,-66
2023-07-27T01:47:30.454Z,-66
2023-07-27T01:49:59.576Z,-67
2023-07-27T01:52:28.646Z,-66
2023-07-27T01:54:59.332Z,-66
2023-07-27T01:57:27.741Z,-66
2023-07-27T01:59:56.265Z,-67
2023-07-27T02:02:24.635Z,-67
2023-07-27T02:04:53.974Z,-67
2023-07-27T02:07:22.294Z,-67
2023-07-27T02:09:50.618Z,-67
2023-07-27T02:12:27.632Z,-66
2023-07-27T02:15:07.424Z,-66
2023-07-27T02:17:43.580Z,-67
2023-07-27T02:20:17.979Z,-65
2023-07-27T02:22:48.544Z,-67
2023-07-27T02:25:16.946Z,-71
2023-07-27T02:27:46.306Z,-72
2023-07-27T02:30:14.722Z,-71
2023-07-27T02:32:43.045Z,-71
2023-07-27T02:35:14.184Z,-72
2023-07-27T02:37:42.433Z,-71
2023-07-27T02:40:11.383Z,-71
2023-07-27T02:42:39.629Z,-71
2023-07-27T02:45:07.920Z,-72
2023-07-27T02:47:36.480Z,-71
2023-07-27T02:50:04.938Z,-72
2023-07-27T02:52:33.381Z,-71
2023-07-27T02:55:01.757Z,-71
2023-07-27T02:57:30.106Z,-72
2023-07-27T02:59:58.371Z,-72
2023-07-27T03:02:26.679Z,-72
2023-07-27T03:04:54.721Z,-72
2023-07-27T03:07:22.955Z,-71
2023-07-27T03:09:54.053Z,-72
2023-07-27T03:12:22.276Z,-71
2023-07-27T03:14:50.586Z,-72
2023-07-27T03:17:18.980Z,-71
2023-07-27T03:19:47.228Z,-71
2023-07-27T03:22:19.210Z,-72
2023-07-27T03:24:49.922Z,-72
2023-07-27T03:27:18.561Z,-71
2023-07-27T03:29:46.806Z,-72
2023-07-27T03:32:15.170Z,-71
2023-07-27T03:34:43.444Z,-71
2023-07-27T03:37:11.854Z,-72
2023-07-27T03:39:40.135Z,-72
2023-07-27T03:42:08.716Z,-71
2023-07-27T03:44:37.002Z,-72
2023-07-27T03:47:05.165Z,-71
2023-07-27T03:49:33.445Z,-71
2023-07-27T03:52:01.687Z,-72
2023-07-27T03:54:30.006Z,-72
2023-07-27T03:56:58.268Z,-72
2023-07-27T03:59:26.578Z,-71
2023-07-27T04:01:55.274Z,-71
2023-07-27T04:04:24.515Z,-71
2023-07-27T04:06:53.153Z,-72
2023-07-27T04:09:21.484Z,-71
2023-07-27T04:11:49.404Z,-72
2023-07-27T04:14:20.264Z,-71
2023-07-27T04:16:48.557Z,-72
2023-07-27T04:19:17.413Z,-71
2023-07-27T04:21:45.668Z,-71
2023-07-27T04:24:13.980Z,-72
2023-07-27T04:26:41.949Z,-71
2023-07-27T04:29:10.242Z,-71
2023-07-27T04:31:38.511Z,-72
2023-07-27T04:34:07.075Z,-71
2023-07-27T04:36:38.039Z,-72
2023-07-27T04:39:06.335Z,-72
2023-07-27T04:41:34.706Z,-71
2023-07-27T04:44:03.038Z,-72
2023-07-27T04:46:31.566Z,-72
2023-07-27T04:49:00.138Z,-72
2023-07-27T04:51:28.388Z,-72
2023-07-27T04:53:56.652Z,-72
2023-07-27T04:56:24.916Z,-72
2023-07-27T04:58:53.219Z,-72
2023-07-27T05:01:22.384Z,-72
2023-07-27T05:03:50.581Z,-72
2023-07-27T05:06:18.851Z,-71
2023-07-27T05:08:47.181Z,-71
2023-07-27T05:11:15.448Z,-71
2023-07-27T05:13:43.799Z,-71
2023-07-27T05:16:12.086Z,-71
2023-07-27T05:18:40.359Z,-72
2023-07-27T05:21:08.632Z,-72
2023-07-27T05:23:36.929Z,-72
2023-07-27T05:26:06.487Z,-72
2023-07-27T05:28:34.761Z,-72
2023-07-27T05:31:03.037Z,-72
2023-07-27T05:33:31.325Z,-72
2023-07-27T05:36:01.253Z,-72
2023-07-27T05:38:29.546Z,-72
2023-07-27T05:41:02.290Z,-72
2023-07-27T05:43:30.672Z,-73
2023-07-27T05:45:59.313Z,-72
2023-07-27T05:48:28.097Z,-72
2023-07-27T05:50:56.322Z,-71
2023-07-27T05:53:24.613Z,-72
2023-07-27T05:55:52.855Z,-73
2023-07-27T05:58:25.566Z,-72
2023-07-27T06:01:00.799Z,-72
2023-07-27T06:03:30.471Z,-73
2023-07-27T06:05:59.036Z,-72
2023-07-27T06:08:27.786Z,-73
2023-07-27T06:11:10.492Z,-72
2023-07-27T06:13:39.107Z,-73
2023-07-27T06:16:07.964Z,-72
2023-07-27T06:18:36.472Z,-72
2023-07-27T06:21:04.718Z,-72
2023-07-27T06:23:32.990Z,-72
2023-07-27T06:26:02.191Z,-72
2023-07-27T06:28:30.523Z,-72
2023-07-27T06:30:58.832Z,-72
2023-07-27T06:33:27.151Z,-73
2023-07-27T06:35:55.502Z,-72
2023-07-27T06:38:23.782Z,-73
2023-07-27T06:40:52.775Z,-72
2023-07-27T06:43:21.056Z,-73
2023-07-27T06:45:49.372Z,-73
2023-07-27T06:48:18.635Z,-72
2023-07-27T06:50:46.921Z,-72
2023-07-27T06:53:15.259Z,-72
2023-07-27T06:55:43.536Z,-72
2023-07-27T06:58:11.839Z,-72
2023-07-27T07:00:40.177Z,-72
2023-07-27T07:03:08.582Z,-72
2023-07-27T07:05:37.154Z,-72
2023-07-27T07:08:05.630Z,-72
2023-07-27T07:10:42.715Z,-72
2023-07-27T07:13:10.977Z,-72
2023-07-27T07:15:39.318Z,-73
2023-07-27T07:18:07.623Z,-72
2023-07-27T07:20:35.965Z,-72
2023-07-27T07:23:04.221Z,-72
2023-07-27T07:25:32.514Z,-72
2023-07-27T07:28:00.912Z,-73
2023-07-27T07:30:29.183Z,-72
2023-07-27T07:32:57.480Z,-72
2023-07-27T07:35:25.789Z,-72
2023-07-27T07:37:54.469Z,-73
2023-07-27T07:40:25.585Z,-72
2023-07-27T07:42:54.345Z,-72
2023-07-27T07:45:22.602Z,-72
2023-07-27T07:47:51.068Z,-72
2023-07-27T07:50:19.377Z,-72
2023-07-27T07:52:50.620Z,-73
2023-07-27T07:55:20.742Z,-72
2023-07-27T07:57:49.041Z,-72
2023-07-27T08:00:17.697Z,-72
2023-07-27T08:02:46.176Z,-72
2023-07-27T08:05:14.466Z,-72
2023-07-27T08:07:42.787Z,-72
2023-07-27T08:10:11.694Z,-72
2023-07-27T08:12:40.148Z,-71
2023-07-27T08:15:09.147Z,-72
2023-07-27T08:17:38.005Z,-72
2023-07-27T08:20:07.044Z,-72
2023-07-27T08:22:35.290Z,-73
2023-07-27T08:25:18.733Z,-73
2023-07-27T08:27:51.624Z,-68
2023-07-27T08:30:20.286Z,-68
2023-07-27T08:32:49.184Z,-68
2023-07-27T08:35:17.634Z,-68
2023-07-27T08:37:45.894Z,-68
2023-07-27T08:40:14.580Z,-67
2023-07-27T08:42:45.437Z,-68
2023-07-27T08:45:16.430Z,-68
2023-07-27T08:47:45.163Z,-68
2023-07-27T08:50:13.983Z,-68
2023-07-27T08:52:42.384Z,-68
2023-07-27T08:55:12.044Z,-67
2023-07-27T08:57:40.371Z,-68
2023-07-27T09:00:10.897Z,-68
2023-07-27T09:02:40.181Z,-68
2023-07-27T09:05:10.290Z,-68
2023-07-27T09:07:38.657Z,-68
2023-07-27T09:10:10.215Z,-68
2023-07-27T09:12:38.685Z,-68
2023-07-27T09:15:24.554Z,-68
2023-07-27T09:17:53.548Z,-68
2023-07-27T09:20:21.925Z,-69
2023-07-27T09:22:51.489Z,-68
2023-07-27T09:25:23.404Z,-68
2023-07-27T09:27:55.906Z,-69
2023-07-27T09:30:26.153Z,-69
2023-07-27T09:32:55.285Z,-69
2023-07-27T09:35:24.008Z,-69
2023-07-27T09:37:53.597Z,-69
2023-07-27T09:40:26.722Z,-69
2023-07-27T09:42:55.277Z,-69
2023-07-27T09:45:23.612Z,-69
2023-07-27T09:47:53.475Z,-68
2023-07-27T09:50:23.522Z,-69
2023-07-27T09:52:51.793Z,-69
2023-07-27T09:55:20.248Z,-69
2023-07-27T09:57:48.860Z,-69
2023-07-27T10:00:17.157Z,-69
2023-07-27T10:02:45.487Z,-68
2023-07-27T10:05:14.163Z,-69
2023-07-27T10:07:53.695Z,-69
2023-07-27T10:10:35.527Z,-69
2023-07-27T10:13:27.756Z,-68
2023-07-27T10:15:59.694Z,-68
2023-07-27T10:18:32.984Z,-69
2023-07-27T10:21:22.762Z,-69
2023-07-27T10:24:05.369Z,-69
2023-07-27T10:26:55.593Z,-69
2023-07-27T10:29:27.503Z,-69
2023-07-27T10:32:07.016Z,-68
2023-07-27T10:34:41.125Z,-68
2023-07-27T10:37:15.216Z,-68
2023-07-27T10:39:55.721Z,-69
2023-07-27T10:42:28.823Z,-68
2023-07-27T10:44:59.849Z,-68
2023-07-27T10:47:38.540Z,-69
2023-07-27T10:50:08.324Z,-69
2023-07-27T10:52:40.121Z,-68
2023-07-27T10:55:09.263Z,-69
2023-07-27T10:57:38.813Z,-69
2023-07-27T11:00:08.258Z,-68
2023-07-27T11:02:37.716Z,-69
2023-07-27T11:05:08.830Z,-69
2023-07-27T11:07:45.722Z,-69
2023-07-27T11:10:17.879Z,-68
2023-07-27T11:12:55.906Z,-69
2023-07-27T11:15:27.970Z,-69
2023-07-27T11:17:58.598Z,-68
2023-07-27T11:20:29.955Z,-69
2023-07-27T11:23:00.113Z,-69
2023-07-27T11:25:32.144Z,-68
2023-07-27T11:28:01.600Z,-69
2023-07-27T11:30:31.933Z,-69
2023-07-27T11:33:01.899Z,-68
2023-07-27T11:35:30.379Z,-68
2023-07-27T11:37:58.921Z,-68
2023-07-27T11:40:28.071Z,-69
2023-07-27T11:42:56.895Z,-69
2023-07-27T11:45:27.469Z,-69
2023-07-27T11:47:55.903Z,-68
2023-07-27T11:50:25.001Z,-68
2023-07-27T11:52:58.869Z,-68
2023-07-27T11:55:27.529Z,-69
2023-07-27T11:57:55.849Z,-68
2023-07-27T12:00:24.247Z,-68
2023-07-27T12:02:53.837Z,-68
2023-07-27T12:05:25.137Z,-68
2023-07-27T12:15:41.763Z,-69
2023-07-27T12:18:12.175Z,-69
2023-07-27T12:25:42.829Z,-69
2023-07-27T12:30:43.863Z,-68
2023-07-27T12:33:12.909Z,-69
2023-07-27T12:35:41.749Z,-68
2023-07-27T12:43:13.007Z,-68
2023-07-27T12:45:41.599Z,-68
2023-07-27T12:48:10.028Z,-68
2023-07-27T12:50:38.424Z,-68
2023-07-27T12:53:06.758Z,-68
2023-07-27T12:55:35.068Z,-68
2023-07-27T12:58:03.426Z,-67
2023-07-27T13:00:31.709Z,-69
2023-07-27T13:03:00.108Z,-68
2023-07-27T13:05:28.529Z,-68
2023-07-27T13:07:56.886Z,-68
2023-07-27T13:10:25.205Z,-68
2023-07-27T13:12:53.473Z,-67
2023-07-27T13:15:21.737Z,-68
2023-07-27T13:17:50.092Z,-68
2023-07-27T13:20:18.396Z,-68
2023-07-27T13:22:46.650Z,-69
2023-07-27T13:25:14.920Z,-69
2023-07-27T13:27:43.198Z,-68
2023-07-27T13:30:11.904Z,-68
2023-07-27T13:32:40.306Z,-68
2023-07-27T13:35:11.125Z,-68
2023-07-27T13:37:40.447Z,-68
2023-07-27T13:40:09.313Z,-68
2023-07-27T13:42:37.573Z,-68
2023-07-27T13:45:06.736Z,-68
2023-07-27T13:47:35.076Z,-68
2023-07-27T13:50:03.536Z,-68
2023-07-27T13:52:31.852Z,-68
2023-07-27T13:55:00.150Z,-68
2023-07-27T13:57:28.432Z,-69
2023-07-27T13:59:56.728Z,-69
2023-07-27T14:02:25.072Z,-69
2023-07-27T14:04:53.406Z,-68
2023-07-27T14:07:21.666Z,-68
2023-07-27T14:09:50.250Z,-68
2023-07-27T14:12:18.638Z,-69
2023-07-27T14:14:46.865Z,-68
2023-07-27T14:17:15.115Z,-68
2023-07-27T14:19:46.045Z,-68
2023-07-27T14:22:14.299Z,-68
2023-07-27T14:24:42.604Z,-68
2023-07-27T14:27:10.913Z,-68
2023-07-27T14:29:39.167Z,-68
2023-07-27T14:32:07.879Z,-68
2023-07-27T14:34:36.161Z,-68
2023-07-27T14:37:04.468Z,-70
2023-07-27T14:42:04.369Z,-70
2023-07-27T14:44:32.614Z,-70
2023-07-27T14:47:01.240Z,-71
2023-07-27T14:49:39.496Z,-71
2023-07-27T14:52:09.599Z,-70
2023-07-27T14:54:37.919Z,-71
2023-07-27T14:57:13.741Z,-71
2023-07-27T14:59:56.037Z,-70
2023-07-27T15:02:28.983Z,-71
2023-07-27T15:04:57.605Z,-71
2023-07-27T15:07:25.999Z,-70
2023-07-27T15:09:55.351Z,-71
2023-07-27T15:12:23.661Z,-70
2023-07-27T15:14:51.892Z,-70
2023-07-27T15:17:20.252Z,-71
2023-07-27T15:19:48.728Z,-72
2023-07-27T15:22:17.037Z,-71
2023-07-27T15:24:45.288Z,-70
2023-07-27T15:27:13.532Z,-71
2023-07-27T15:29:57.509Z,-71
2023-07-27T15:32:25.894Z,-70
2023-07-27T15:34:54.316Z,-70
2023-07-27T15:37:22.632Z,-71
2023-07-27T15:39:51.091Z,-70
2023-07-27T15:42:19.989Z,-70
2023-07-27T15:44:48.369Z,-70
2023-07-27T15:47:16.763Z,-70
2023-07-27T15:49:46.875Z,-70
2023-07-27T15:52:15.143Z,-70
2023-07-27T15:54:43.465Z,-70
2023-07-27T15:57:15.683Z,-70
2023-07-27T15:59:44.150Z,-70
2023-07-27T16:02:12.817Z,-71
2023-07-27T16:04:41.100Z,-70
2023-07-27T16:07:11.558Z,-71
2023-07-27T16:09:39.811Z,-70
2023-07-27T16:12:08.521Z,-70
2023-07-27T16:14:36.886Z,-70
2023-07-27T16:17:05.223Z,-71
2023-07-27T16:19:33.602Z,-71
2023-07-27T16:22:01.903Z,-71
2023-07-27T16:24:30.426Z,-71
2023-07-27T16:26:58.669Z,-71
2023-07-27T16:29:26.663Z,-71
2023-07-27T16:31:55.199Z,-71
2023-07-27T16:34:23.457Z,-71
2023-07-27T16:36:52.022Z,-72
2023-07-27T16:39:20.332Z,-72
2023-07-27T16:41:48.638Z,-71
2023-07-27T16:44:17.735Z,-70
2023-07-27T16:46:46.099Z,-72
2023-07-27T16:49:15.699Z,-71
2023-07-27T16:51:45.108Z,-71
2023-07-27T16:54:13.711Z,-70
2023-07-27T16:56:41.958Z,-69
2023-07-27T16:59:10.285Z,-70
2023-07-27T17:01:39.564Z,-72
2023-07-27T17:04:07.992Z,-71
2023-07-27T17:06:38.076Z,-71
2023-07-27T17:09:06.589Z,-71
2023-07-27T17:11:34.978Z,-71
2023-07-27T17:14:03.228Z,-72
2023-07-27T17:16:31.574Z,-71
2023-07-27T17:19:00.102Z,-71
2023-07-27T17:21:28.525Z,-71
2023-07-27T17:23:57.043Z,-72
2023-07-27T17:26:25.556Z,-70
2023-07-27T17:28:55.484Z,-72
2023-07-27T17:31:24.002Z,-71
2023-07-27T17:33:52.032Z,-71
2023-07-27T17:36:20.289Z,-70
2023-07-27T17:38:48.557Z,-70
2023-07-27T17:41:16.829Z,-71
2023-07-27T17:43:45.388Z,-72
2023-07-27T17:46:13.689Z,-71
2023-07-27T17:48:41.994Z,-71
2023-07-27T17:51:10.675Z,-72
2023-07-27T17:53:38.979Z,-72
2023-07-27T17:56:08.324Z,-72
2023-07-27T17:58:36.693Z,-72
2023-07-27T18:01:05.158Z,-72
2023-07-27T18:03:33.532Z,-72
2023-07-27T18:06:07.991Z,-72
2023-07-27T18:08:36.318Z,-72
2023-07-27T18:11:11.700Z,-72
2023-07-27T18:13:41.652Z,-72
2023-07-27T18:16:17.528Z,-71
2023-07-27T18:18:45.937Z,-72
2023-07-27T18:21:17.239Z,-71
2023-07-27T18:23:48.702Z,-73
2023-07-27T18:26:18.422Z,-72
2023-07-27T18:28:46.978Z,-73
2023-07-27T18:31:15.271Z,-72
2023-07-27T18:33:43.601Z,-71
2023-07-27T18:36:17.186Z,-72
2023-07-27T18:38:47.107Z,-72
2023-07-27T18:41:17.618Z,-72
2023-07-27T18:43:46.427Z,-71
2023-07-27T18:46:21.046Z,-72
2023-07-27T18:48:50.151Z,-72
2023-07-27T18:51:18.717Z,-73
2023-07-27T18:53:47.124Z,-72
2023-07-27T18:56:15.418Z,-72
2023-07-27T18:58:43.771Z,-72
2023-07-27T19:01:12.291Z,-72
2023-07-27T19:03:41.440Z,-72
2023-07-27T19:06:10.797Z,-71
2023-07-27T19:08:39.220Z,-72
2023-07-27T19:11:08.304Z,-72
2023-07-27T19:13:36.905Z,-72
2023-07-27T19:16:05.898Z,-72
2023-07-27T19:18:35.417Z,-72
2023-07-27T19:21:06.261Z,-72
2023-07-27T19:23:36.246Z,-71
2023-07-27T19:26:04.656Z,-72
2023-07-27T19:28:33.005Z,-72
2023-07-27T19:31:02.166Z,-72
2023-07-27T19:33:30.491Z,-72
2023-07-27T19:35:59.432Z,-72
2023-07-27T19:38:27.762Z,-72
2023-07-27T19:40:56.006Z,-72
2023-07-27T19:43:25.130Z,-72
2023-07-27T19:45:53.525Z,-72
2023-07-27T19:48:21.838Z,-73
2023-07-27T19:50:53.516Z,-72
2023-07-27T19:53:21.874Z,-72
2023-07-27T19:55:50.246Z,-72
2023-07-27T19:58:18.559Z,-72
2023-07-27T20:00:46.857Z,-72
2023-07-27T20:03:15.330Z,-72
2023-07-27T20:05:43.594Z,-72
2023-07-27T20:08:11.809Z,-73
2023-07-27T20:10:40.072Z,-72
2023-07-27T20:13:08.350Z,-71
2023-07-27T20:15:36.767Z,-72
2023-07-27T20:18:05.410Z,-72
2023-07-27T20:20:33.754Z,-72
2023-07-27T20:23:02.612Z,-72
2023-07-27T20:25:30.896Z,-72
2023-07-27T20:27:59.178Z,-71
2023-07-27T20:30:27.490Z,-72
2023-07-27T20:32:55.821Z,-71
2023-07-27T20:35:24.119Z,-72
2023-07-27T20:37:52.423Z,-68
2023-07-27T20:40:20.685Z,-67
2023-07-27T20:42:49.291Z,-67
2023-07-27T20:45:17.791Z,-67
2023-07-27T20:47:46.081Z,-67
2023-07-27T20:50:15.166Z,-68
2023-07-27T20:52:44.383Z,-68
2023-07-27T20:55:12.679Z,-67
2023-07-27T20:57:40.923Z,-68
2023-07-27T21:00:10.091Z,-68
2023-07-27T21:02:37.980Z,-67
2023-07-27T21:05:06.426Z,-68
2023-07-27T21:07:34.776Z,-68
2023-07-27T21:10:03.565Z,-67
2023-07-27T21:12:31.881Z,-68
2023-07-27T21:15:03.586Z,-68
2023-07-27T21:17:31.998Z,-67
2023-07-27T21:20:00.509Z,-68
2023-07-27T21:22:28.815Z,-69
2023-07-27T21:24:57.096Z,-69
2023-07-27T21:27:25.390Z,-68
2023-07-27T21:29:53.816Z,-69
2023-07-27T21:32:22.384Z,-69
2023-07-27T21:34:50.874Z,-69
2023-07-27T21:37:19.257Z,-69
2023-07-27T21:39:49.346Z,-68
2023-07-27T21:42:23.423Z,-69
2023-07-27T21:44:51.696Z,-68
2023-07-27T21:47:19.936Z,-68
2023-07-27T21:49:48.195Z,-69
2023-07-27T21:52:16.271Z,-69
2023-07-27T21:54:44.498Z,-69
2023-07-27T21:57:12.845Z,-69
2023-07-27T21:59:41.257Z,-68
2023-07-27T22:02:09.601Z,-68
2023-07-27T22:04:38.501Z,-68
2023-07-27T22:07:06.790Z,-68
2023-07-27T22:09:35.043Z,-69
2023-07-27T22:12:03.487Z,-69
2023-07-27T22:14:31.730Z,-69
2023-07-27T22:17:00.000Z,-69
2023-07-27T22:19:28.304Z,-68
2023-07-27T22:21:56.571Z,-69
2023-07-27T22:24:25.062Z,-68
2023-07-27T22:26:53.341Z,-69
2023-07-27T22:29:21.579Z,-68
2023-07-27T22:31:50.414Z,-68
2023-07-27T22:34:18.808Z,-69
2023-07-27T22:36:47.057Z,-68
2023-07-27T22:39:17.174Z,-68
2023-07-27T22:41:46.846Z,-69
2023-07-27T22:44:15.349Z,-69
2023-07-27T22:46:43.618Z,-69
2023-07-27T22:49:11.929Z,-69
2023-07-27T22:51:41.199Z,-68
2023-07-27T22:54:09.675Z,-69
2023-07-27T22:56:38.188Z,-68
2023-07-27T22:59:06.459Z,-69
2023-07-27T23:01:34.792Z,-68
2023-07-27T23:04:02.772Z,-68
2023-07-27T23:06:31.478Z,-69
2023-07-27T23:09:00.094Z,-68
2023-07-27T23:11:28.383Z,-68
2023-07-27T23:13:56.624Z,-69
2023-07-27T23:16:24.976Z,-69
2023-07-27T23:18:53.293Z,-68
2023-07-27T23:21:21.577Z,-69
2023-07-27T23:23:50.099Z,-68
2023-07-27T23:26:18.411Z,-69
2023-07-27T23:28:46.688Z,-68
2023-07-27T23:31:14.629Z,-69
2023-07-27T23:33:42.907Z,-68
2023-07-27T23:36:13.854Z,-68
2023-07-27T23:38:42.149Z,-67
2023-07-27T23:41:10.441Z,-67
2023-07-27T23:43:38.707Z,-68
2023-07-27T23:46:07.022Z,-67
2023-07-27T23:48:35.307Z,-67
2023-07-27T23:51:03.577Z,-67
2023-07-27T23:53:31.838Z,-67
2023-07-27T23:56:00.582Z,-67
2023-07-27T23:58:28.851Z,-67
